createdAt,value
2018-08-22T00:00:44.649Z,77.20
2018-08-22T00:03:13.253Z,75.60
2018-08-22T00:05:41.846Z,77.40
2018-08-22T00:08:10.447Z,75.80
2018-08-22T00:10:39.017Z,77.20
2018-08-22T00:13:07.609Z,75.50
2018-08-22T00:15:36.194Z,76.70
2018-08-22T00:18:04.943Z,78.20
2018-08-22T00:20:33.523Z,77.50
2018-08-22T00:23:02.296Z,76.60
2018-08-22T00:25:30.918Z,77.80
2018-08-22T00:27:59.513Z,76.90
2018-08-22T00:30:28.072Z,77.20
2018-08-22T00:32:56.705Z,76.70
2018-08-22T00:35:25.277Z,76.20
2018-08-22T00:37:53.885Z,77.80
2018-08-22T00:40:22.517Z,78.10
2018-08-22T00:42:51.134Z,76.70
2018-08-22T00:45:19.716Z,77.00
2018-08-22T00:47:48.317Z,79.40
2018-08-22T00:50:16.913Z,78.20
2018-08-22T00:52:46.161Z,78.90
2018-08-22T00:55:14.731Z,79.30
2018-08-22T00:57:43.347Z,78.80
2018-08-22T01:00:11.935Z,79.30
2018-08-22T01:02:40.579Z,78.40
2018-08-22T01:05:09.183Z,78.90
2018-08-22T01:07:37.784Z,78.20
2018-08-22T01:10:07.541Z,77.60
2018-08-22T01:12:36.175Z,78.40
2018-08-22T01:15:05.221Z,79.30
2018-08-22T01:17:33.930Z,77.30
2018-08-22T01:20:02.521Z,78.30
2018-08-22T01:22:31.097Z,78.40
2018-08-22T01:24:59.695Z,78.60
2018-08-22T01:27:28.257Z,78.60
2018-08-22T01:29:56.860Z,80.10
2018-08-22T01:32:30.120Z,78.10
2018-08-22T01:35:01.545Z,78.40
2018-08-22T01:37:30.165Z,79.80
2018-08-22T01:39:58.750Z,79.30
2018-08-22T01:42:27.303Z,80.40
2018-08-22T01:44:55.917Z,80.00
2018-08-22T01:47:24.511Z,80.00
2018-08-22T01:49:53.198Z,79.90
2018-08-22T01:52:22.030Z,78.20
2018-08-22T01:54:50.653Z,80.10
2018-08-22T01:57:19.225Z,80.50
2018-08-22T01:59:47.851Z,77.30
2018-08-22T02:02:16.424Z,79.00
2018-08-22T02:04:45.061Z,79.90
2018-08-22T02:07:13.758Z,79.60
2018-08-22T02:09:42.365Z,79.10
2018-08-22T02:12:10.955Z,79.70
2018-08-22T02:14:39.834Z,79.80
2018-08-22T02:17:08.417Z,80.30
2018-08-22T02:19:37.196Z,80.40
2018-08-22T02:22:06.131Z,80.30
2018-08-22T02:24:34.804Z,80.40
2018-08-22T02:27:03.369Z,80.30
2018-08-22T02:29:31.962Z,80.20
2018-08-22T02:32:00.568Z,81.40
2018-08-22T02:34:29.358Z,80.90
2018-08-22T02:36:57.921Z,81.40
2018-08-22T02:39:26.518Z,81.10
2018-08-22T02:41:55.089Z,82.10
2018-08-22T02:44:23.673Z,81.30
2018-08-22T02:46:52.402Z,82.50
2018-08-22T02:49:20.966Z,81.70
2018-08-22T02:51:49.772Z,83.50
2018-08-22T02:54:18.353Z,81.90
2018-08-22T02:56:47.137Z,80.90
2018-08-22T02:59:15.762Z,81.30
2018-08-22T03:01:44.374Z,82.00
2018-08-22T03:04:12.997Z,82.70
2018-08-22T03:06:41.623Z,81.80
2018-08-22T03:09:10.221Z,80.90
2018-08-22T03:11:39.061Z,79.70
2018-08-22T03:14:07.681Z,82.10
2018-08-22T03:16:36.299Z,82.90
2018-08-22T03:19:05.317Z,82.50
2018-08-22T03:21:34.074Z,83.00
2018-08-22T03:24:02.652Z,82.70
2018-08-22T03:26:31.253Z,83.10
2018-08-22T03:28:59.820Z,81.60
2018-08-22T03:31:28.581Z,82.70
2018-08-22T03:33:57.149Z,83.10
2018-08-22T03:36:26.077Z,80.30
2018-08-22T03:38:54.839Z,83.10
2018-08-22T03:41:23.433Z,82.20
2018-08-22T03:43:52.026Z,84.30
2018-08-22T03:46:20.647Z,82.10
2018-08-22T03:48:49.225Z,81.80
2018-08-22T03:51:17.826Z,82.20
2018-08-22T03:53:46.454Z,82.80
2018-08-22T03:56:15.117Z,83.20
2018-08-22T03:58:43.681Z,83.20
2018-08-22T04:01:12.284Z,82.70
2018-08-22T04:03:40.878Z,82.40
2018-08-22T04:06:09.477Z,82.70
2018-08-22T04:08:38.065Z,83.40
2018-08-22T04:11:06.870Z,83.20
2018-08-22T04:13:35.454Z,84.00
2018-08-22T04:16:04.401Z,85.10
2018-08-22T04:18:32.970Z,83.40
2018-08-22T04:21:02.713Z,81.40
2018-08-22T04:23:31.329Z,82.10
2018-08-22T04:25:59.919Z,82.80
2018-08-22T04:28:28.518Z,82.50
2018-08-22T04:30:57.255Z,83.50
2018-08-22T04:33:25.829Z,83.90
2018-08-22T04:35:54.481Z,84.40
2018-08-22T04:38:23.073Z,86.20
2018-08-22T04:40:51.644Z,85.30
2018-08-22T04:43:20.233Z,83.70
2018-08-22T04:45:48.793Z,83.40
2018-08-22T04:48:17.414Z,84.30
2018-08-22T04:50:45.983Z,84.20
2018-08-22T04:53:14.577Z,85.10
2018-08-22T04:55:43.153Z,84.70
2018-08-22T04:58:11.770Z,84.80
2018-08-22T05:00:40.361Z,84.90
2018-08-22T05:03:08.969Z,85.50
2018-08-22T05:05:37.542Z,84.80
2018-08-22T05:08:06.149Z,85.80
2018-08-22T05:10:34.706Z,86.40
2018-08-22T05:13:03.442Z,87.30
2018-08-22T05:15:32.013Z,86.30
2018-08-22T05:18:00.706Z,86.60
2018-08-22T05:20:29.282Z,87.70
2018-08-22T05:22:57.877Z,87.00
2018-08-22T05:25:26.453Z,86.90
2018-08-22T05:27:55.065Z,87.50
2018-08-22T05:30:23.630Z,86.00
2018-08-22T05:32:52.285Z,86.20
2018-08-22T05:35:20.866Z,84.40
2018-08-22T05:37:49.533Z,86.30
2018-08-22T05:40:18.105Z,86.90
2018-08-22T05:42:46.705Z,86.80
2018-08-22T05:45:15.285Z,85.70
2018-08-22T05:47:44.018Z,86.10
2018-08-22T05:50:12.650Z,84.80
2018-08-22T05:52:41.336Z,84.20
2018-08-22T05:55:09.945Z,83.40
2018-08-22T05:57:38.562Z,82.60
2018-08-22T06:00:07.665Z,81.00
2018-08-22T06:02:36.486Z,79.90
2018-08-22T06:05:05.541Z,79.40
2018-08-22T06:07:34.164Z,78.10
2018-08-22T06:10:03.146Z,76.60
2018-08-22T06:12:31.745Z,74.80
2018-08-22T06:15:01.198Z,74.00
2018-08-22T06:17:29.769Z,73.20
2018-08-22T06:19:58.389Z,73.00
2018-08-22T06:22:26.993Z,72.10
2018-08-22T06:24:55.585Z,70.60
2018-08-22T06:27:24.162Z,68.70
2018-08-22T06:29:52.761Z,68.50
2018-08-22T06:32:28.756Z,68.50
2018-08-22T06:35:02.191Z,66.70
2018-08-22T06:37:33.570Z,65.40
2018-08-22T06:40:03.893Z,64.40
2018-08-22T06:42:32.720Z,63.30
2018-08-22T06:45:02.180Z,61.40
2018-08-22T06:47:31.857Z,60.10
2018-08-22T06:50:00.677Z,59.40
2018-08-22T06:52:29.798Z,57.80
2018-08-22T06:54:58.542Z,58.20
2018-08-22T06:57:27.275Z,56.20
2018-08-22T06:59:55.929Z,56.20
2018-08-22T07:02:25.622Z,55.20
2018-08-22T07:04:54.313Z,51.80
2018-08-22T07:07:23.967Z,51.40
2018-08-22T07:09:52.763Z,50.30
2018-08-22T07:12:21.589Z,49.60
2018-08-22T07:14:50.826Z,49.70
2018-08-22T07:17:19.606Z,48.50
2018-08-22T07:19:48.386Z,48.00
2018-08-22T07:22:17.188Z,48.10
2018-08-22T07:24:46.040Z,46.10
2018-08-22T07:27:16.059Z,45.80
2018-08-22T07:29:45.205Z,43.70
2018-08-22T07:32:14.053Z,44.00
2018-08-22T07:34:42.694Z,43.80
2018-08-22T07:37:11.336Z,43.10
2018-08-22T07:39:40.097Z,44.10
2018-08-22T07:42:08.895Z,41.10
2018-08-22T07:44:37.601Z,41.50
2018-08-22T07:47:06.763Z,40.90
2018-08-22T07:49:35.459Z,40.70
2018-08-22T07:52:04.213Z,40.60
2018-08-22T07:54:38.225Z,41.00
2018-08-22T07:57:07.018Z,43.00
2018-08-22T07:59:35.740Z,40.00
2018-08-22T08:02:04.648Z,37.60
2018-08-22T08:04:33.423Z,40.10
2018-08-22T08:07:02.125Z,36.20
2018-08-22T08:09:30.688Z,37.90
2018-08-22T08:11:59.676Z,39.50
2018-08-22T08:14:28.459Z,37.60
2018-08-22T08:16:57.422Z,36.00
2018-08-22T08:19:26.164Z,34.70
2018-08-22T08:21:55.281Z,38.20
2018-08-22T08:24:24.195Z,36.80
2018-08-22T08:26:53.042Z,36.30
2018-08-22T08:29:21.929Z,35.20
2018-08-22T08:31:50.892Z,35.30
2018-08-22T08:34:19.775Z,35.30
2018-08-22T08:36:48.561Z,35.90
2018-08-22T08:39:17.462Z,34.80
2018-08-22T08:41:46.358Z,34.90
2018-08-22T08:44:15.180Z,33.30
2018-08-22T08:46:43.991Z,34.50
2018-08-22T08:49:12.774Z,37.00
2018-08-22T08:51:53.060Z,32.90
2018-08-22T08:54:22.624Z,32.90
2018-08-22T08:56:51.405Z,32.00
2018-08-22T08:59:20.130Z,31.80
2018-08-22T09:01:50.106Z,34.40
2018-08-22T09:04:19.544Z,34.30
2018-08-22T09:06:49.266Z,32.40
2018-08-22T09:09:17.943Z,33.20
2018-08-22T09:11:52.041Z,33.00
2018-08-22T09:14:20.694Z,31.40
2018-08-22T09:16:49.466Z,30.80
2018-08-22T09:19:18.073Z,32.50
2018-08-22T09:21:46.927Z,31.80
2018-08-22T09:24:15.965Z,31.10
2018-08-22T09:26:45.209Z,31.10
2018-08-22T09:29:14.213Z,30.50
2018-08-22T09:31:43.120Z,31.50
2018-08-22T09:34:11.750Z,31.90
2018-08-22T09:36:40.547Z,30.20
2018-08-22T09:39:11.645Z,31.40
2018-08-22T09:41:40.218Z,30.80
2018-08-22T09:44:09.058Z,30.00
2018-08-22T09:46:38.657Z,29.90
2018-08-22T09:49:07.342Z,29.30
2018-08-22T09:51:35.973Z,29.60
2018-08-22T09:54:04.716Z,31.40
2018-08-22T09:56:33.281Z,29.90
2018-08-22T09:59:02.087Z,29.70
2018-08-22T10:01:36.126Z,30.00
2018-08-22T10:04:04.980Z,29.30
2018-08-22T10:06:37.563Z,30.00
2018-08-22T10:09:11.517Z,30.00
2018-08-22T10:11:40.349Z,29.10
2018-08-22T10:14:09.169Z,29.80
2018-08-22T10:16:37.794Z,27.90
2018-08-22T10:19:06.572Z,28.70
2018-08-22T10:21:35.328Z,29.30
2018-08-22T10:24:04.096Z,28.50
2018-08-22T10:26:32.887Z,28.60
2018-08-22T10:29:02.043Z,27.90
2018-08-22T10:31:30.826Z,28.90
2018-08-22T10:33:59.635Z,28.40
2018-08-22T10:36:28.266Z,28.60
2018-08-22T10:38:57.076Z,29.00
2018-08-22T10:41:25.749Z,28.20
2018-08-22T10:43:55.103Z,28.30
2018-08-22T10:46:23.894Z,29.60
2018-08-22T10:48:52.619Z,29.20
2018-08-22T10:51:21.673Z,29.70
2018-08-22T10:53:50.435Z,30.00
2018-08-22T10:56:19.341Z,29.50
2018-08-22T10:58:48.403Z,31.00
2018-08-22T11:01:17.539Z,30.90
2018-08-22T11:03:46.984Z,30.70
2018-08-22T11:06:16.266Z,30.10
2018-08-22T11:08:45.268Z,32.10
2018-08-22T11:11:14.190Z,32.70
2018-08-22T11:13:43.621Z,32.40
2018-08-22T11:16:14.046Z,32.20
2018-08-22T11:18:43.114Z,32.70
2018-08-22T11:21:22.925Z,33.50
2018-08-22T11:24:02.638Z,33.70
2018-08-22T11:26:42.474Z,34.10
2018-08-22T11:29:22.324Z,33.70
2018-08-22T11:32:02.146Z,34.90
2018-08-22T11:34:41.953Z,35.20
2018-08-22T11:37:13.010Z,35.90
2018-08-22T11:39:44.094Z,35.80
2018-08-22T11:42:12.882Z,36.20
2018-08-22T11:44:41.930Z,35.70
2018-08-22T11:47:10.795Z,36.70
2018-08-22T11:49:40.401Z,36.60
2018-08-22T11:52:09.317Z,36.50
2018-08-22T11:54:38.434Z,36.90
2018-08-22T11:57:07.491Z,36.70
2018-08-22T11:59:36.388Z,37.00
2018-08-22T12:02:05.321Z,37.20
2018-08-22T12:04:34.240Z,36.90
2018-08-22T12:07:03.050Z,37.00
2018-08-22T12:09:31.712Z,37.40
2018-08-22T12:12:00.395Z,37.00
2018-08-22T12:14:28.992Z,37.20
2018-08-22T12:16:57.709Z,37.70
2018-08-22T12:19:26.294Z,38.30
2018-08-22T12:21:55.664Z,37.10
2018-08-22T12:24:24.452Z,37.20
2018-08-22T12:26:53.071Z,37.60
2018-08-22T12:29:21.661Z,37.00
2018-08-22T12:31:50.430Z,38.30
2018-08-22T12:34:19.326Z,38.10
2018-08-22T12:36:47.926Z,37.70
2018-08-22T12:39:16.501Z,38.30
2018-08-22T12:41:45.216Z,37.30
2018-08-22T12:44:13.903Z,37.40
2018-08-22T12:46:42.709Z,38.50
2018-08-22T12:49:11.476Z,38.00
2018-08-22T12:51:40.204Z,38.30
2018-08-22T12:54:09.201Z,38.40
2018-08-22T12:56:38.089Z,38.30
2018-08-22T12:59:06.970Z,37.60
2018-08-22T13:01:35.971Z,38.00
2018-08-22T13:04:04.835Z,38.60
2018-08-22T13:06:33.581Z,38.60
2018-08-22T13:09:02.494Z,39.10
2018-08-22T13:11:31.280Z,38.50
2018-08-22T13:14:00.069Z,39.10
2018-08-22T13:16:28.876Z,39.20
2018-08-22T13:18:57.461Z,39.30
2018-08-22T13:21:26.672Z,38.90
2018-08-22T13:23:55.621Z,39.10
2018-08-22T13:26:24.494Z,39.90
2018-08-22T13:28:53.356Z,38.70
2018-08-22T13:31:22.658Z,39.10
2018-08-22T13:33:51.315Z,39.40
2018-08-22T13:36:20.277Z,38.90
2018-08-22T13:38:48.828Z,39.80
2018-08-22T13:41:17.903Z,40.10
2018-08-22T13:43:46.870Z,39.30
2018-08-22T13:46:15.799Z,39.90
2018-08-22T13:48:44.591Z,38.20
2018-08-22T13:51:13.548Z,38.40
2018-08-22T13:53:42.329Z,38.60
2018-08-22T13:56:11.236Z,37.90
2018-08-22T13:58:39.910Z,39.90
2018-08-22T14:01:08.703Z,39.50
2018-08-22T14:03:37.357Z,37.40
2018-08-22T14:06:06.200Z,37.70
2018-08-22T14:08:35.427Z,38.40
2018-08-22T14:11:04.077Z,36.60
2018-08-22T14:13:33.107Z,37.10
2018-08-22T14:16:02.039Z,37.10
2018-08-22T14:18:30.964Z,37.30
2018-08-22T14:20:59.667Z,37.70
2018-08-22T14:23:28.502Z,37.00
2018-08-22T14:25:57.379Z,36.40
2018-08-22T14:28:25.992Z,37.00
2018-08-22T14:30:54.590Z,37.20
2018-08-22T14:33:23.354Z,36.70
2018-08-22T14:35:52.050Z,36.60
2018-08-22T14:38:20.739Z,35.40
2018-08-22T14:40:49.373Z,35.60
2018-08-22T14:43:18.372Z,35.90
2018-08-22T14:45:47.108Z,36.20
2018-08-22T14:48:15.846Z,36.50
2018-08-22T14:50:44.630Z,37.40
2018-08-22T14:53:13.234Z,37.60
2018-08-22T14:55:41.990Z,36.20
2018-08-22T14:58:10.591Z,37.10
2018-08-22T15:00:39.250Z,36.50
2018-08-22T15:03:08.214Z,36.40
2018-08-22T15:05:37.058Z,37.00
2018-08-22T15:08:06.008Z,38.00
2018-08-22T15:10:34.935Z,35.80
2018-08-22T15:13:03.969Z,35.70
2018-08-22T15:15:32.804Z,37.20
2018-08-22T15:18:01.430Z,37.40
2018-08-22T15:20:30.029Z,35.90
2018-08-22T15:22:58.662Z,36.70
2018-08-22T15:25:27.374Z,35.70
2018-08-22T15:27:56.241Z,35.70
2018-08-22T15:30:25.332Z,35.60
2018-08-22T15:32:54.072Z,34.50
2018-08-22T15:35:23.066Z,34.90
2018-08-22T15:37:52.082Z,35.30
2018-08-22T15:40:20.776Z,36.60
2018-08-22T15:42:49.574Z,35.70
2018-08-22T15:45:18.446Z,36.70
2018-08-22T15:47:47.047Z,38.00
2018-08-22T15:50:15.944Z,36.90
2018-08-22T15:52:44.999Z,37.00
2018-08-22T15:55:16.610Z,36.40
2018-08-22T15:58:07.149Z,36.80
2018-08-22T16:00:49.333Z,38.00
2018-08-22T16:03:18.013Z,37.00
2018-08-22T16:05:47.453Z,34.70
2018-08-22T16:08:18.081Z,36.70
2018-08-22T16:10:46.825Z,37.40
2018-08-22T16:13:20.880Z,37.40
2018-08-22T16:15:52.080Z,36.80
2018-08-22T16:18:21.029Z,38.80
2018-08-22T16:20:57.046Z,37.40
2018-08-22T16:23:29.746Z,36.70
2018-08-22T16:25:59.698Z,36.40
2018-08-22T16:28:33.900Z,37.30
2018-08-22T16:31:02.546Z,36.60
2018-08-22T16:33:31.141Z,37.20
2018-08-22T16:35:59.804Z,37.40
2018-08-22T16:38:28.390Z,37.20
2018-08-22T16:40:57.010Z,37.20
2018-08-22T16:43:39.061Z,36.80
2018-08-22T16:46:11.040Z,37.30
2018-08-22T16:48:40.469Z,37.00
2018-08-22T16:51:09.102Z,36.80
2018-08-22T16:53:37.699Z,36.70
2018-08-22T16:56:06.347Z,37.40
2018-08-22T16:58:34.970Z,37.90
2018-08-22T17:01:04.209Z,37.60
2018-08-22T17:03:33.325Z,37.90
2018-08-22T17:06:06.113Z,38.40
2018-08-22T17:08:34.725Z,38.60
2018-08-22T17:11:05.570Z,38.00
2018-08-22T17:13:48.821Z,38.70
2018-08-22T17:16:17.450Z,39.20
2018-08-22T17:18:46.103Z,39.00
2018-08-22T17:21:14.733Z,39.00
2018-08-22T17:23:43.953Z,39.30
2018-08-22T17:26:14.824Z,39.60
2018-08-22T17:28:46.245Z,39.70
2018-08-22T17:31:15.497Z,39.30
2018-08-22T17:33:47.130Z,39.50
2018-08-22T17:36:15.870Z,39.80
2018-08-22T17:38:45.657Z,39.90
2018-08-22T17:41:14.691Z,40.30
2018-08-22T17:43:55.134Z,42.30
2018-08-22T17:46:25.610Z,43.00
2018-08-22T17:48:54.206Z,44.20
2018-08-22T17:51:22.836Z,44.70
2018-08-22T17:53:51.505Z,45.10
2018-08-22T17:56:22.706Z,46.20
2018-08-22T17:58:52.408Z,46.20
2018-08-22T18:01:21.451Z,47.70
2018-08-22T18:03:50.072Z,47.90
2018-08-22T18:06:18.749Z,48.30
2018-08-22T18:08:47.311Z,49.20
2018-08-22T18:11:15.902Z,49.70
2018-08-22T18:13:44.508Z,49.40
2018-08-22T18:16:13.104Z,50.10
2018-08-22T18:18:41.798Z,50.20
2018-08-22T18:21:10.389Z,51.30
2018-08-22T18:23:49.418Z,51.80
2018-08-22T18:26:18.022Z,51.80
2018-08-22T18:28:46.624Z,52.30
2018-08-22T18:31:15.281Z,52.00
2018-08-22T18:33:56.483Z,51.60
2018-08-22T18:36:26.324Z,51.70
2018-08-22T18:39:08.410Z,52.30
2018-08-22T18:41:37.850Z,52.60
2018-08-22T18:44:06.482Z,53.20
2018-08-22T18:46:35.101Z,53.60
2018-08-22T18:49:04.617Z,53.80
2018-08-22T18:51:33.537Z,54.20
2018-08-22T18:54:02.833Z,54.40
2018-08-22T18:56:31.487Z,55.20
2018-08-22T18:59:10.114Z,55.40
2018-08-22T19:01:38.725Z,56.10
2018-08-22T19:04:07.330Z,55.70
2018-08-22T19:06:35.954Z,55.80
2018-08-22T19:09:05.962Z,56.30
2018-08-22T19:11:35.593Z,56.00
2018-08-22T19:14:05.047Z,56.60
2018-08-22T19:16:34.076Z,57.10
2018-08-22T19:19:04.957Z,56.90
2018-08-22T19:21:34.249Z,57.60
2018-08-22T19:24:05.860Z,58.30
2018-08-22T19:26:37.616Z,58.60
2018-08-22T19:29:10.225Z,59.30
2018-08-22T19:31:44.092Z,59.10
2018-08-22T19:34:12.681Z,60.40
2018-08-22T19:36:41.429Z,59.20
2018-08-22T19:39:09.991Z,59.00
2018-08-22T19:41:38.670Z,59.10
2018-08-22T19:44:07.289Z,59.10
2018-08-22T19:46:36.639Z,60.50
2018-08-22T19:49:05.589Z,60.40
2018-08-22T19:51:34.128Z,58.90
2018-08-22T19:54:06.574Z,60.30
2018-08-22T19:56:35.706Z,61.20
2018-08-22T19:59:05.150Z,62.10
2018-08-22T20:01:35.123Z,61.40
2018-08-22T20:04:03.779Z,61.90
2018-08-22T20:06:32.390Z,62.20
2018-08-22T20:09:01.353Z,62.50
2018-08-22T20:11:33.729Z,62.60
2018-08-22T20:14:05.564Z,63.40
2018-08-22T20:16:34.178Z,63.50
2018-08-22T20:19:04.470Z,63.30
2018-08-22T20:21:34.205Z,63.90
2018-08-22T20:24:04.020Z,63.40
2018-08-22T20:26:33.060Z,63.90
2018-08-22T20:29:02.563Z,64.40
2018-08-22T20:31:31.578Z,64.50
2018-08-22T20:34:14.198Z,64.40
2018-08-22T20:36:47.446Z,65.60
2018-08-22T20:39:16.174Z,64.40
2018-08-22T20:41:45.185Z,65.10
2018-08-22T20:44:18.409Z,65.60
2018-08-22T20:46:47.946Z,66.00
2018-08-22T20:49:18.264Z,66.90
2018-08-22T20:51:46.998Z,67.00
2018-08-22T20:54:20.521Z,66.20
2018-08-22T20:56:55.022Z,66.70
2018-08-22T20:59:23.622Z,68.20
2018-08-22T21:02:08.696Z,66.50
2018-08-22T21:04:37.284Z,67.00
2018-08-22T21:07:06.223Z,67.50
2018-08-22T21:09:34.823Z,67.70
2018-08-22T21:12:04.598Z,67.00
2018-08-22T21:14:33.224Z,67.60
2018-08-22T21:17:02.750Z,67.70
2018-08-22T21:19:31.350Z,67.90
2018-08-22T21:21:59.920Z,68.80
2018-08-22T21:24:28.562Z,68.70
2018-08-22T21:26:57.129Z,68.60
2018-08-22T21:29:25.737Z,68.80
2018-08-22T21:31:54.361Z,69.00
2018-08-22T21:34:24.230Z,69.00
2018-08-22T21:36:52.812Z,68.70
2018-08-22T21:39:26.533Z,68.70
2018-08-22T21:41:55.312Z,68.20
2018-08-22T21:44:24.197Z,69.20
2018-08-22T21:46:59.957Z,70.70
2018-08-22T21:49:28.918Z,70.10
2018-08-22T21:51:58.000Z,70.70
2018-08-22T21:54:26.924Z,72.50
2018-08-22T21:56:55.706Z,70.30
2018-08-22T21:59:24.392Z,71.00
2018-08-22T22:01:58.304Z,70.90
2018-08-22T22:04:42.135Z,70.80
2018-08-22T22:07:11.941Z,71.70
2018-08-22T22:09:40.849Z,70.50
2018-08-22T22:12:14.692Z,71.00
2018-08-22T22:14:45.305Z,72.30
2018-08-22T22:17:13.889Z,72.90
2018-08-22T22:19:42.534Z,72.80
2018-08-22T22:22:11.186Z,72.30
2018-08-22T22:24:45.143Z,72.60
2018-08-22T22:27:13.882Z,72.20
2018-08-22T22:29:42.507Z,72.00
2018-08-22T22:32:11.104Z,70.70
2018-08-22T22:34:39.873Z,71.30
2018-08-22T22:37:09.428Z,71.10
2018-08-22T22:39:42.693Z,72.30
2018-08-22T22:42:22.721Z,72.20
2018-08-22T22:44:52.524Z,72.20
2018-08-22T22:47:26.537Z,72.70
2018-08-22T22:49:56.032Z,72.80
2018-08-22T22:52:27.854Z,73.60
2018-08-22T22:54:58.440Z,72.40
2018-08-22T22:57:29.488Z,73.00
2018-08-22T23:00:00.125Z,74.60
2018-08-22T23:02:29.138Z,75.70
2018-08-22T23:04:58.289Z,73.10
2018-08-22T23:07:37.424Z,74.30
2018-08-22T23:10:07.497Z,73.40
2018-08-22T23:12:39.013Z,75.60
2018-08-22T23:15:15.482Z,73.90
2018-08-22T23:17:44.609Z,72.70
2018-08-22T23:20:24.995Z,72.30
2018-08-22T23:22:53.689Z,74.40
2018-08-22T23:25:22.385Z,73.90
2018-08-22T23:27:51.015Z,74.30
2018-08-22T23:30:21.217Z,74.60
2018-08-22T23:32:49.831Z,74.70
2018-08-22T23:35:23.040Z,74.10
2018-08-22T23:38:11.770Z,73.60
2018-08-22T23:40:40.373Z,74.50
2018-08-22T23:43:08.970Z,75.00
2018-08-22T23:45:37.606Z,75.20
2018-08-22T23:48:06.694Z,75.70
2018-08-22T23:50:41.094Z,75.60
2018-08-22T23:53:09.700Z,77.00
2018-08-22T23:55:38.293Z,75.40
2018-08-22T23:58:06.873Z,73.90
